Time;durP1;ratioP1;P1;durP2;ratioP2;P2;SDS_P1;SDS_P2;PMS_P1;PMS_P2;Temp;Humidity;BMP_temperature;BMP_pressure;BME280_temperature;BME280_humidity;BME280_pressure;Samples;Min_cycle;Max_cycle;Signal;HPM_P1;HPM_P2
2021/03/21 00:00:54;;;;;;;9.15;3.22;;;5.50;59.20;;;;;;4991389;28;20034;-61
2021/03/21 00:03:21;;;;;;;6.75;3.25;;;5.50;60.10;;;;;;4991653;28;20521;-62
2021/03/21 00:05:47;;;;;;;5.50;2.55;;;5.50;59.80;;;;;;4991512;28;20290;-61
2021/03/21 00:08:15;;;;;;;6.88;3.63;;;5.40;60.50;;;;;;4994413;28;20307;-61
2021/03/21 00:10:41;;;;;;;4.57;3.15;;;5.40;61.50;;;;;;4991135;28;20030;-62
2021/03/21 00:13:06;;;;;;;5.68;3.45;;;5.40;61.60;;;;;;4993035;28;20044;-62
2021/03/21 00:15:32;;;;;;;6.05;3.20;;;5.40;61.20;;;;;;4990421;28;20042;-62
2021/03/21 00:17:59;;;;;;;5.65;3.15;;;5.50;62.30;;;;;;4992236;28;20113;-62
2021/03/21 00:20:29;;;;;;;6.50;3.15;;;5.50;62.10;;;;;;4991488;28;20053;-61
2021/03/21 00:22:55;;;;;;;7.25;3.90;;;5.50;61.90;;;;;;4995009;28;20250;-61
2021/03/21 00:25:23;;;;;;;7.35;3.40;;;5.60;62.20;;;;;;4991627;28;20042;-61
2021/03/21 00:27:50;;;;;;;8.75;3.55;;;5.60;62.00;;;;;;4997174;28;20032;-61
2021/03/21 00:30:20;;;;;;;6.63;3.45;;;5.60;62.10;;;;;;4999675;28;20041;-61
2021/03/21 00:32:46;;;;;;;9.65;4.35;;;5.60;62.70;;;;;;4999229;28;20030;-61
2021/03/21 00:35:12;;;;;;;9.48;4.03;;;5.60;63.10;;;;;;4998994;28;20076;-61
2021/03/21 00:37:40;;;;;;;8.38;4.00;;;5.60;64.10;;;;;;4998826;28;20048;-61
2021/03/21 00:40:08;;;;;;;6.50;3.55;;;5.60;64.60;;;;;;4998089;28;20030;-61
2021/03/21 00:42:35;;;;;;;8.70;4.03;;;5.70;63.70;;;;;;4998144;28;20077;-61
2021/03/21 00:45:00;;;;;;;8.70;3.97;;;5.70;64.70;;;;;;4995987;28;20034;-61
2021/03/21 00:47:26;;;;;;;8.20;3.75;;;5.50;64.80;;;;;;4997581;28;20204;-62
2021/03/21 00:49:52;;;;;;;8.02;4.25;;;5.40;66.00;;;;;;4993635;28;20812;-61
2021/03/21 00:52:18;;;;;;;8.18;4.75;;;5.40;66.80;;;;;;4997097;28;20029;-62
2021/03/21 00:54:43;;;;;;;8.77;4.65;;;5.40;66.90;;;;;;4994817;28;20112;-62
2021/03/21 00:57:09;;;;;;;8.07;4.70;;;5.50;67.00;;;;;;4991748;28;20691;-62
2021/03/21 00:59:35;;;;;;;6.63;4.40;;;5.50;66.80;;;;;;4994095;28;20482;-61
2021/03/21 01:02:00;;;;;;;8.18;4.68;;;5.50;67.90;;;;;;4994461;28;20502;-61
2021/03/21 01:04:26;;;;;;;7.70;4.88;;;5.40;69.40;;;;;;4994803;28;20650;-61
2021/03/21 01:06:52;;;;;;;11.00;5.50;;;5.40;70.20;;;;;;4991679;28;20202;-62
2021/03/21 01:09:17;;;;;;;10.60;4.93;;;5.30;71.10;;;;;;4993901;28;20029;-61
2021/03/21 01:11:43;;;;;;;11.02;5.72;;;5.30;71.70;;;;;;4991029;28;20988;-61
2021/03/21 01:14:09;;;;;;;11.00;5.93;;;5.20;72.90;;;;;;4993002;28;20053;-61
2021/03/21 01:16:39;;;;;;;10.57;5.85;;;5.10;73.70;;;;;;4990491;28;20045;-61
2021/03/21 01:19:10;;;;;;;8.30;5.53;;;5.20;74.00;;;;;;4992157;28;20739;-61
2021/03/21 01:21:37;;;;;;;10.15;6.30;;;5.20;73.70;;;;;;4989662;28;20030;-61
2021/03/21 01:24:03;;;;;;;11.23;5.60;;;5.30;74.20;;;;;;4991249;28;20038;-61
2021/03/21 01:26:29;;;;;;;9.73;6.18;;;5.30;74.70;;;;;;4990387;28;20053;-61
2021/03/21 01:28:56;;;;;;;12.20;6.60;;;5.40;75.20;;;;;;4987954;28;20018;-61
2021/03/21 01:31:25;;;;;;;10.93;5.90;;;5.30;76.50;;;;;;4990073;28;20705;-62
2021/03/21 01:33:51;;;;;;;12.73;6.35;;;5.30;76.50;;;;;;4987752;28;20097;-61
2021/03/21 01:36:22;;;;;;;10.82;6.03;;;5.30;76.80;;;;;;4994079;28;20660;-62
2021/03/21 01:38:50;;;;;;;9.38;6.60;;;5.30;77.20;;;;;;4997780;28;20030;-61
2021/03/21 01:41:25;;;;;;;13.48;7.45;;;5.20;77.80;;;;;;4997696;28;20520;-62
2021/03/21 01:43:51;;;;;;;11.80;6.88;;;5.20;77.90;;;;;;4995108;28;20623;-61
2021/03/21 01:46:29;;;;;;;11.45;7.03;;;5.30;78.00;;;;;;4996247;28;20026;-63
2021/03/21 01:48:56;;;;;;;14.05;7.32;;;5.40;78.30;;;;;;4996682;28;20034;-62
2021/03/21 01:51:27;;;;;;;12.80;7.68;;;5.30;78.20;;;;;;4998345;28;20042;-62
2021/03/21 01:54:00;;;;;;;12.15;6.95;;;5.30;78.90;;;;;;4997223;28;20037;-62
2021/03/21 01:56:27;;;;;;;12.68;7.72;;;5.20;79.30;;;;;;4991396;28;20034;-61
2021/03/21 01:59:00;;;;;;;11.90;6.88;;;5.10;80.00;;;;;;4994001;28;20037;-61
2021/03/21 02:01:29;;;;;;;12.70;7.43;;;5.10;80.80;;;;;;4990721;28;20041;-62
2021/03/21 02:03:55;;;;;;;16.65;7.60;;;5.00;81.60;;;;;;4992226;28;20038;-61
2021/03/21 02:06:29;;;;;;;14.55;7.80;;;5.10;81.40;;;;;;4993214;28;20034;-61
2021/03/21 02:09:14;;;;;;;13.93;8.18;;;5.20;81.00;;;;;;4974229;28;20038;-62
2021/03/21 02:12:03;;;;;;;13.23;8.32;;;5.30;81.80;;;;;;4991146;28;20052;-61
2021/03/21 02:14:43;;;;;;;14.48;8.13;;;5.10;82.70;;;;;;4992551;28;20077;-61
2021/03/21 02:17:36;;;;;;;15.27;7.78;;;5.10;83.80;;;;;;4991458;28;20057;-61
2021/03/21 02:20:18;;;;;;;17.23;8.23;;;5.00;84.30;;;;;;4991867;28;20038;-61
2021/03/21 02:23:06;;;;;;;15.98;8.45;;;5.00;84.80;;;;;;4989159;28;20557;-61
2021/03/21 02:25:59;;;;;;;16.05;8.15;;;5.00;85.60;;;;;;4990723;28;20083;-61
2021/03/21 02:29:02;;;;;;;15.10;8.65;;;4.90;85.90;;;;;;4990245;28;20045;-61
2021/03/21 02:31:36;;;;;;;16.25;8.93;;;4.90;86.50;;;;;;4990639;28;20045;-61
2021/03/21 02:34:09;;;;;;;15.32;7.65;;;4.90;86.80;;;;;;4989244;28;20244;-62
2021/03/21 02:36:38;;;;;;;13.40;8.30;;;4.90;87.00;;;;;;4987627;28;20046;-61
2021/03/21 02:39:30;;;;;;;14.05;8.25;;;5.00;86.90;;;;;;4988874;28;20042;-61
2021/03/21 02:42:03;;;;;;;14.38;8.60;;;5.10;86.60;;;;;;4987699;28;20042;-62
2021/03/21 02:44:36;;;;;;;14.63;7.78;;;5.10;86.60;;;;;;4989098;28;20642;-62
2021/03/21 02:47:13;;;;;;;13.23;7.63;;;5.10;86.30;;;;;;4996746;28;20022;-62
2021/03/21 02:49:43;;;;;;;13.32;7.55;;;5.10;86.40;;;;;;4993093;28;20440;-61
2021/03/21 02:52:15;;;;;;;12.95;8.38;;;5.10;86.60;;;;;;4992481;28;20740;-61
2021/03/21 02:54:46;;;;;;;16.45;8.13;;;5.10;87.00;;;;;;4995375;28;20421;-61
2021/03/21 02:57:15;;;;;;;15.52;7.95;;;5.20;86.80;;;;;;4989164;28;20033;-61
2021/03/21 02:59:47;;;;;;;14.48;7.95;;;5.20;86.50;;;;;;4995496;28;20739;-62
2021/03/21 03:02:21;;;;;;;12.50;7.57;;;5.30;86.60;;;;;;4990074;28;20054;-61
2021/03/21 03:04:53;;;;;;;14.10;8.15;;;5.30;86.60;;;;;;4991860;28;20395;-61
2021/03/21 03:07:51;;;;;;;10.18;6.78;;;5.40;86.70;;;;;;4992326;28;20033;-61
2021/03/21 03:10:47;;;;;;;11.80;7.00;;;5.50;86.50;;;;;;4980824;28;20080;-62
2021/03/21 03:13:48;;;;;;;11.82;7.18;;;5.50;86.40;;;;;;4991744;28;20048;-62
2021/03/21 03:16:39;;;;;;;9.85;6.75;;;5.60;86.50;;;;;;4991283;28;20057;-57
2021/03/21 03:19:30;;;;;;;12.52;6.05;;;5.70;86.30;;;;;;4991289;28;20034;-58
2021/03/21 03:22:02;;;;;;;9.57;6.28;;;5.70;86.30;;;;;;4990574;28;20026;-58
2021/03/21 03:24:59;;;;;;;14.05;7.10;;;5.70;86.30;;;;;;4994339;28;20123;-58
2021/03/21 03:27:56;;;;;;;11.73;6.65;;;5.70;86.40;;;;;;4993695;28;20096;-58
2021/03/21 03:30:26;;;;;;;11.27;6.60;;;5.60;87.20;;;;;;4990960;28;20112;-58
2021/03/21 03:32:53;;;;;;;10.10;6.70;;;5.60;87.20;;;;;;4992141;28;20026;-58
2021/03/21 03:35:22;;;;;;;11.38;7.32;;;5.70;87.20;;;;;;4993733;28;20156;-58
2021/03/21 03:37:48;;;;;;;16.88;7.65;;;5.70;87.20;;;;;;4990584;28;20046;-58
2021/03/21 03:40:15;;;;;;;13.10;6.97;;;5.70;87.10;;;;;;4993010;28;20041;-58
2021/03/21 03:43:02;;;;;;;9.45;6.43;;;5.60;86.80;;;;;;4991000;28;20509;-58
2021/03/21 03:45:34;;;;;;;;;;;5.70;87.40;;;;;;4994474;28;20045;-58
2021/03/21 03:48:03;;;;;;;13.13;7.07;;;5.70;87.20;;;;;;4993213;28;19947;-58
2021/03/21 03:50:52;;;;;;;9.55;6.65;;;5.70;87.60;;;;;;4995614;28;20033;-58
2021/03/21 03:53:43;;;;;;;10.18;6.30;;;5.70;88.00;;;;;;4995325;28;20034;-58
2021/03/21 03:56:20;;;;;;;10.75;6.40;;;5.70;87.90;;;;;;4996776;28;20033;-58
2021/03/21 03:58:58;;;;;;;9.98;5.63;;;5.60;88.60;;;;;;4999213;28;20783;-58
2021/03/21 04:01:31;;;;;;;7.68;5.20;;;5.60;88.50;;;;;;5001174;28;20034;-57
2021/03/21 04:04:10;;;;;;;12.27;6.13;;;5.60;88.90;;;;;;4998793;28;20509;-56
2021/03/21 04:06:42;;;;;;;10.65;6.38;;;5.70;88.50;;;;;;4997736;28;20048;-57
2021/03/21 04:09:16;;;;;;;10.70;6.03;;;5.70;88.40;;;;;;4995923;28;20034;-58
2021/03/21 04:11:55;;;;;;;9.60;5.80;;;5.70;88.40;;;;;;4993334;28;20322;-58
2021/03/21 04:14:31;;;;;;;9.10;5.80;;;5.80;88.00;;;;;;4993357;28;20478;-58
2021/03/21 04:17:24;;;;;;;8.60;5.43;;;5.90;87.80;;;;;;4986591;28;20042;-58
2021/03/21 04:20:05;;;;;;;8.82;5.47;;;5.80;87.60;;;;;;4997322;28;20487;-58
2021/03/21 04:22:34;;;;;;;9.80;6.18;;;5.80;88.00;;;;;;4994078;28;20038;-57
2021/03/21 04:25:14;;;;;;;9.20;5.47;;;5.80;88.00;;;;;;4988532;28;20044;-58
2021/03/21 04:28:03;;;;;;;8.18;4.95;;;5.90;88.20;;;;;;4984508;28;20026;-58
2021/03/21 04:30:50;;;;;;;7.47;5.10;;;6.00;88.10;;;;;;4996747;28;20034;-58
2021/03/21 04:33:20;;;;;;;7.95;4.57;;;6.00;87.90;;;;;;4991345;28;20034;-58
2021/03/21 04:35:58;;;;;;;11.32;5.10;;;5.90;87.90;;;;;;4987648;28;20093;-58
2021/03/21 04:38:44;;;;;;;7.20;4.75;;;6.00;88.30;;;;;;4993165;28;20046;-58
2021/03/21 04:41:16;;;;;;;9.30;4.88;;;6.00;88.00;;;;;;4987182;28;20076;-58
2021/03/21 04:44:09;;;;;;;6.93;4.68;;;6.00;88.70;;;;;;4993789;28;20041;-58
2021/03/21 04:46:53;;;;;;;7.80;4.82;;;5.90;89.00;;;;;;4988919;28;20096;-57
2021/03/21 04:49:20;;;;;;;7.55;5.05;;;6.00;89.00;;;;;;4986234;28;20041;-59
2021/03/21 04:51:48;;;;;;;8.52;4.68;;;6.00;88.70;;;;;;4988291;28;20041;-58
2021/03/21 04:54:29;;;;;;;6.38;4.22;;;6.00;88.90;;;;;;4994094;28;20033;-58
2021/03/21 04:57:20;;;;;;;6.55;4.50;;;6.10;88.90;;;;;;4986739;28;20044;-58
2021/03/21 04:59:46;;;;;;;9.85;4.57;;;6.10;89.00;;;;;;4988801;28;20766;-58
2021/03/21 05:02:27;;;;;;;7.68;4.65;;;6.10;89.30;;;;;;4986598;28;20048;-58
2021/03/21 05:05:01;;;;;;;6.18;3.45;;;6.10;89.20;;;;;;4997001;28;20080;-58
2021/03/21 05:07:36;;;;;;;5.25;3.83;;;6.10;89.00;;;;;;4996970;28;20139;-58
2021/03/21 05:10:13;;;;;;;7.32;4.35;;;6.00;89.10;;;;;;4993882;28;20046;-57
2021/03/21 05:12:45;;;;;;;6.53;4.50;;;6.00;89.90;;;;;;4990791;28;20038;-58
2021/03/21 05:15:26;;;;;;;6.57;3.90;;;5.90;90.10;;;;;;4991270;28;20041;-58
2021/03/21 05:18:14;;;;;;;7.28;4.60;;;6.00;90.00;;;;;;4996832;28;20038;-58
2021/03/21 05:20:43;;;;;;;6.80;3.70;;;6.00;89.80;;;;;;4996908;28;20143;-58
2021/03/21 05:23:27;;;;;;;7.85;3.70;;;6.00;90.10;;;;;;4994092;28;20482;-58
2021/03/21 05:26:00;;;;;;;5.90;3.50;;;6.00;90.20;;;;;;4989800;28;20487;-58
2021/03/21 05:28:38;;;;;;;5.68;3.70;;;6.00;90.20;;;;;;4991249;28;20441;-58
2021/03/21 05:31:04;;;;;;;6.40;3.55;;;6.10;90.10;;;;;;4988223;28;20048;-58
2021/03/21 05:33:30;;;;;;;8.45;3.40;;;6.20;89.80;;;;;;4994119;28;20030;-57
2021/03/21 05:36:02;;;;;;;4.72;3.40;;;6.20;89.40;;;;;;4994425;28;20076;-58
2021/03/21 05:38:50;;;;;;;6.18;3.15;;;6.20;89.20;;;;;;4993539;28;20528;-58
2021/03/21 05:41:25;;;;;;;4.20;3.38;;;6.20;89.40;;;;;;4992044;28;20037;-57
2021/03/21 05:44:22;;;;;;;3.75;2.90;;;6.20;89.50;;;;;;4992735;28;20061;-58
2021/03/21 05:47:24;;;;;;;4.60;2.90;;;6.20;90.00;;;;;;4988142;28;20042;-57
2021/03/21 05:50:08;;;;;;;4.45;3.17;;;6.10;90.40;;;;;;4988633;28;20049;-58
2021/03/21 05:53:02;;;;;;;6.95;3.33;;;6.10;90.50;;;;;;4990627;28;20046;-58
2021/03/21 05:55:52;;;;;;;5.38;3.67;;;6.10;90.60;;;;;;4986590;28;20104;-58
2021/03/21 05:58:45;;;;;;;6.18;3.17;;;6.20;90.70;;;;;;4983158;28;20505;-58
2021/03/21 06:01:48;;;;;;;5.30;3.38;;;6.20;90.60;;;;;;4985907;28;20033;-58
2021/03/21 06:04:34;;;;;;;4.05;3.13;;;6.30;90.50;;;;;;4990008;28;20042;-58
2021/03/21 06:07:30;;;;;;;6.60;3.58;;;6.40;90.40;;;;;;4982729;28;20042;-57
2021/03/21 06:10:26;;;;;;;4.00;2.92;;;6.40;90.10;;;;;;4992412;28;20049;-58
2021/03/21 06:13:16;;;;;;;5.13;3.42;;;6.50;90.30;;;;;;4997218;28;20061;-57
2021/03/21 06:16:20;;;;;;;6.13;3.30;;;6.50;90.20;;;;;;4987623;28;20045;-57
2021/03/21 06:18:58;;;;;;;5.20;3.85;;;6.50;90.30;;;;;;4991208;28;20495;-57
2021/03/21 06:21:27;;;;;;;8.50;4.65;;;6.50;90.20;;;;;;4992750;28;20118;-58
2021/03/21 06:24:18;;;;;;;4.55;3.40;;;6.60;90.30;;;;;;4986833;28;20038;-58
2021/03/21 06:27:22;;;;;;;4.68;3.45;;;6.60;89.90;;;;;;4985885;28;20882;-57
2021/03/21 06:30:25;;;;;;;3.90;3.20;;;6.70;89.90;;;;;;4973377;28;20125;-58
2021/03/21 06:33:10;;;;;;;5.78;3.35;;;6.70;89.90;;;;;;4994489;28;20238;-57
2021/03/21 06:35:51;;;;;;;6.32;3.50;;;6.70;90.00;;;;;;4993745;28;20904;-59
2021/03/21 06:38:38;;;;;;;4.63;2.90;;;6.70;90.30;;;;;;4991225;28;20042;-58
2021/03/21 06:41:35;;;;;;;5.03;3.17;;;6.70;90.20;;;;;;4991440;28;20045;-58
2021/03/21 06:44:12;;;;;;;4.15;3.05;;;6.70;90.50;;;;;;4994167;28;20038;-58
2021/03/21 06:46:47;;;;;;;4.93;3.25;;;6.70;90.30;;;;;;4996244;28;20049;-58
2021/03/21 06:49:43;;;;;;;4.50;3.20;;;6.70;90.50;;;;;;4989915;28;20045;-57
2021/03/21 06:52:32;;;;;;;4.47;3.05;;;6.80;90.40;;;;;;4983440;28;20025;-58
2021/03/21 06:55:19;;;;;;;4.75;3.53;;;6.90;90.30;;;;;;4986143;28;20053;-58
2021/03/21 06:57:47;;;;;;;5.65;3.95;;;7.00;90.40;;;;;;4989685;28;20038;-58
2021/03/21 07:00:52;;;;;;;6.43;3.70;;;7.00;90.20;;;;;;4986879;28;20157;-58
2021/03/21 07:03:41;;;;;;;5.07;2.97;;;7.00;90.30;;;;;;4986061;28;20077;-58
2021/03/21 07:06:25;;;;;;;4.45;2.90;;;7.10;90.20;;;;;;4967272;28;20060;-57
2021/03/21 07:09:13;;;;;;;5.20;2.97;;;7.10;90.20;;;;;;4981721;28;20034;-57
2021/03/21 07:12:07;;;;;;;4.00;2.70;;;7.20;90.20;;;;;;4982289;28;20053;-58
2021/03/21 07:15:16;;;;;;;4.18;2.65;;;7.20;90.10;;;;;;4999344;28;20717;-58
2021/03/21 07:18:19;;;;;;;2.75;2.10;;;7.20;90.20;;;;;;4984259;28;20046;-56
2021/03/21 07:20:58;;;;;;;2.63;2.08;;;7.20;90.20;;;;;;4985017;28;20124;-58
2021/03/21 07:23:42;;;;;;;3.20;2.17;;;7.20;90.30;;;;;;4993664;28;20037;-59
2021/03/21 07:26:49;;;;;;;3.38;2.10;;;7.20;90.50;;;;;;4987887;28;20095;-59
2021/03/21 07:29:15;;;;;;;2.00;1.70;;;7.20;90.70;;;;;;4990053;28;20114;-58
2021/03/21 07:31:53;;;;;;;2.97;2.00;;;7.20;90.60;;;;;;4995299;28;20038;-58
2021/03/21 07:34:37;;;;;;;1.90;1.60;;;7.30;90.30;;;;;;4988746;28;20045;-58
2021/03/21 07:37:22;;;;;;;2.97;2.67;;;7.30;90.20;;;;;;4993694;28;20037;-60
2021/03/21 07:39:47;;;;;;;3.33;1.80;;;7.30;90.20;;;;;;4987747;28;20025;-59
2021/03/21 07:42:37;;;;;;;2.17;1.60;;;7.40;90.30;;;;;;4995133;28;21019;-58
2021/03/21 07:45:28;;;;;;;2.85;1.70;;;7.50;90.10;;;;;;4987209;28;20034;-58
2021/03/21 07:47:53;;;;;;;2.20;1.50;;;7.60;89.70;;;;;;4990192;28;20070;-56
2021/03/21 07:50:37;;;;;;;1.70;1.60;;;7.60;89.60;;;;;;4991229;28;20187;-56
2021/03/21 07:53:33;;;;;;;3.08;1.98;;;7.70;89.80;;;;;;4986904;28;20954;-59
2021/03/21 07:56:27;;;;;;;1.40;1.27;;;7.80;89.70;;;;;;4989507;28;20088;-64
2021/03/21 07:59:05;;;;;;;1.67;1.40;;;7.80;89.20;;;;;;4955889;28;20106;-59
2021/03/21 08:01:30;;;;;;;2.00;1.27;;;7.90;89.30;;;;;;4989956;28;20044;-59
2021/03/21 08:04:04;;;;;;;2.42;1.77;;;7.90;89.00;;;;;;4980616;28;20026;-59
2021/03/21 08:06:42;;;;;;;2.65;1.85;;;8.10;88.50;;;;;;4988452;28;20042;-59
2021/03/21 08:09:20;;;;;;;3.20;2.55;;;8.10;88.60;;;;;;4983969;28;20034;-58
2021/03/21 08:11:53;;;;;;;2.03;1.48;;;8.00;87.40;;;;;;4986650;28;20026;-58
2021/03/21 08:14:30;;;;;;;3.08;1.90;;;7.90;88.40;;;;;;4992694;28;20076;-59
2021/03/21 08:17:01;;;;;;;2.47;1.42;;;7.90;88.50;;;;;;4993515;28;20049;-59
2021/03/21 08:19:31;;;;;;;2.72;1.75;;;8.00;87.70;;;;;;4990971;28;20041;-59
2021/03/21 08:21:57;;;;;;;4.10;2.10;;;7.90;87.30;;;;;;4983771;28;20046;-58
2021/03/21 08:24:35;;;;;;;5.30;2.35;;;8.00;87.10;;;;;;4996776;28;20037;-63
2021/03/21 08:27:09;;;;;;;3.97;2.13;;;7.90;86.70;;;;;;4990508;28;20072;-57
2021/03/21 08:30:06;;;;;;;5.40;3.22;;;7.90;86.70;;;;;;4993797;28;20046;-59
2021/03/21 08:32:34;;;;;;;14.63;6.63;;;7.80;87.40;;;;;;4984396;28;20172;-62
2021/03/21 08:35:19;;;;;;;14.35;4.82;;;7.80;87.60;;;;;;4997226;28;20045;-59
2021/03/21 08:38:01;;;;;;;10.80;4.30;;;7.70;86.70;;;;;;4991490;28;20053;-59
2021/03/21 08:40:40;;;;;;;19.33;8.73;;;7.70;86.80;;;;;;4995772;28;20464;-59
2021/03/21 08:43:18;;;;;;;16.35;5.50;;;7.70;86.90;;;;;;4992799;28;20461;-59
2021/03/21 08:45:47;;;;;;;15.50;4.30;;;7.80;86.80;;;;;;4992924;28;20111;-59
2021/03/21 08:48:18;;;;;;;9.60;3.53;;;7.80;86.60;;;;;;4991305;28;20034;-60
2021/03/21 08:50:46;;;;;;;15.13;4.45;;;7.90;86.10;;;;;;4988382;28;20038;-60
2021/03/21 08:53:34;;;;;;;6.13;2.60;;;7.90;85.30;;;;;;4991102;28;20045;-59
2021/03/21 08:56:17;;;;;;;12.98;3.83;;;7.90;84.50;;;;;;4987626;28;20123;-60
2021/03/21 08:58:46;;;;;;;22.02;6.40;;;7.90;86.10;;;;;;4993031;28;20045;-59
2021/03/21 09:01:23;;;;;;;32.83;10.25;;;7.80;84.70;;;;;;4989268;28;20032;-64
2021/03/21 09:03:51;;;;;;;9.20;2.40;;;7.90;84.90;;;;;;4992688;28;20124;-64
2021/03/21 09:06:28;;;;;;;11.68;2.40;;;7.80;83.60;;;;;;4993832;28;20068;-64
2021/03/21 09:09:12;;;;;;;8.40;1.90;;;7.80;84.50;;;;;;4996855;28;20096;-62
2021/03/21 09:11:38;;;;;;;6.85;2.05;;;7.80;84.70;;;;;;4990709;28;20026;-59
2021/03/21 09:14:05;;;;;;;10.63;2.13;;;8.00;84.20;;;;;;4993345;28;20167;-60
2021/03/21 09:16:51;;;;;;;9.75;2.50;;;8.20;83.60;;;;;;4983176;28;20043;-60
2021/03/21 09:19:21;;;;;;;8.35;2.15;;;8.60;81.40;;;;;;4987462;28;20042;-59
2021/03/21 09:21:47;;;;;;;7.93;1.92;;;8.80;80.40;;;;;;4991856;28;20034;-59
2021/03/21 09:24:37;;;;;;;12.85;2.05;;;9.00;79.70;;;;;;4992435;28;20875;-59
2021/03/21 09:27:18;;;;;;;11.38;2.22;;;9.20;79.50;;;;;;4986652;28;20053;-63
2021/03/21 09:29:45;;;;;;;7.88;2.13;;;9.30;74.90;;;;;;4994582;28;20069;-63
2021/03/21 09:32:26;;;;;;;12.13;2.72;;;9.30;76.20;;;;;;4990481;28;20467;-63
2021/03/21 09:35:19;;;;;;;14.23;1.95;;;9.40;76.80;;;;;;4991967;28;20576;-63
2021/03/21 09:37:46;;;;;;;13.40;2.35;;;9.30;75.50;;;;;;4993875;28;20144;-63
2021/03/21 09:40:38;;;;;;;13.63;2.90;;;9.40;75.00;;;;;;4997282;28;20046;-63
2021/03/21 09:43:12;;;;;;;18.08;2.67;;;9.40;75.90;;;;;;4991865;28;20621;-63
2021/03/21 09:46:00;;;;;;;12.70;2.60;;;9.40;74.80;;;;;;4987464;28;20065;-60
2021/03/21 09:48:59;;;;;;;13.43;2.47;;;9.30;74.80;;;;;;4981483;28;20038;-59
2021/03/21 09:51:50;;;;;;;12.05;2.05;;;9.40;75.20;;;;;;4967008;28;20827;-59
2021/03/21 09:54:32;;;;;;;14.63;2.60;;;9.40;74.10;;;;;;4989739;28;20049;-60
2021/03/21 09:57:19;;;;;;;13.65;2.83;;;9.40;74.40;;;;;;4985719;28;20136;-59
2021/03/21 10:00:02;;;;;;;27.00;4.35;;;9.40;74.70;;;;;;4992799;28;20029;-59
2021/03/21 10:02:53;;;;;;;12.60;2.47;;;9.30;72.40;;;;;;4995233;28;20470;-59
2021/03/21 10:05:34;;;;;;;14.23;2.40;;;9.30;72.60;;;;;;4989772;28;20556;-59
2021/03/21 10:07:59;;;;;;;13.63;2.88;;;9.30;72.60;;;;;;4991783;28;20084;-63
2021/03/21 10:10:44;;;;;;;14.10;2.72;;;9.30;72.50;;;;;;4992063;28;20712;-59
2021/03/21 10:13:10;;;;;;;19.17;3.53;;;9.30;72.10;;;;;;4986305;28;20025;-58
2021/03/21 10:16:15;;;;;;;15.85;2.30;;;9.40;71.90;;;;;;4982423;28;20798;-57
2021/03/21 10:18:58;;;;;;;17.30;3.10;;;9.50;70.80;;;;;;4983794;28;20034;-54
2021/03/21 10:21:24;;;;;;;11.65;2.95;;;9.60;71.90;;;;;;4986290;28;20038;-58
2021/03/21 10:23:50;;;;;;;21.88;3.33;;;9.70;72.30;;;;;;4988290;28;20038;-57
2021/03/21 10:26:19;;;;;;;14.60;2.83;;;9.60;70.00;;;;;;4986490;28;20692;-58
2021/03/21 10:28:55;;;;;;;23.70;3.47;;;9.70;71.00;;;;;;4990235;28;20441;-59
2021/03/21 10:31:23;;;;;;;333.10;31.13;;;9.70;71.00;;;;;;4992494;28;20649;-59
2021/03/21 10:33:52;;;;;;;15.75;3.13;;;9.70;70.40;;;;;;4990954;28;20037;-59
2021/03/21 10:36:40;;;;;;;41.17;9.25;;;9.70;69.50;;;;;;4989146;28;20067;-61
2021/03/21 10:39:24;;;;;;;37.35;6.75;;;9.70;69.40;;;;;;4989514;28;20042;-59
2021/03/21 10:42:03;;;;;;;28.77;10.10;;;9.60;70.50;;;;;;4986858;28;20045;-59
2021/03/21 10:44:32;;;;;;;16.02;2.83;;;9.70;70.20;;;;;;4995673;28;20120;-59
2021/03/21 10:47:16;;;;;;;15.00;2.88;;;9.60;70.30;;;;;;4985256;28;20046;-59
2021/03/21 10:49:56;;;;;;;23.67;7.50;;;9.60;70.60;;;;;;4985010;28;20026;-59
2021/03/21 10:52:24;;;;;;;15.85;4.75;;;9.60;70.70;;;;;;4994207;28;20061;-59
2021/03/21 10:55:29;;;;;;;14.07;2.95;;;9.60;70.20;;;;;;4996776;28;20045;-59
2021/03/21 10:57:59;;;;;;;14.50;3.90;;;9.70;71.00;;;;;;4960860;28;20051;-59
2021/03/21 11:00:31;;;;;;;11.52;2.35;;;9.70;71.20;;;;;;4988071;28;20973;-59
2021/03/21 11:03:00;;;;;;;14.88;2.25;;;9.60;70.60;;;;;;4989974;28;20040;-59
2021/03/21 11:05:28;;;;;;;21.70;3.45;;;9.60;70.90;;;;;;4993538;28;20037;-59
2021/03/21 11:08:29;;;;;;;14.15;3.28;;;9.50;70.00;;;;;;4988032;28;20033;-59
2021/03/21 11:11:13;;;;;;;17.63;2.72;;;9.50;70.40;;;;;;4995765;28;20129;-60
2021/03/21 11:13:39;;;;;;;13.82;2.88;;;9.30;70.90;;;;;;4987345;28;20479;-59
2021/03/21 11:16:13;;;;;;;14.32;2.85;;;9.30;72.00;;;;;;4992263;28;20136;-60
2021/03/21 11:18:40;;;;;;;13.20;2.72;;;9.20;71.40;;;;;;4987383;28;20402;-58
2021/03/21 11:21:17;;;;;;;12.25;2.92;;;9.30;71.30;;;;;;4989440;28;20755;-58
2021/03/21 11:23:54;;;;;;;12.88;3.15;;;9.30;71.40;;;;;;4989465;28;20043;-58
2021/03/21 11:26:29;;;;;;;18.08;2.92;;;9.30;71.40;;;;;;4984286;28;20561;-58
2021/03/21 11:29:01;;;;;;;16.52;3.30;;;9.30;71.00;;;;;;4992513;28;20026;-59
2021/03/21 11:31:36;;;;;;;21.00;4.85;;;9.30;71.30;;;;;;4981588;28;20045;-59
2021/03/21 11:34:23;;;;;;;22.77;4.32;;;9.30;71.20;;;;;;4981127;28;20037;-59
2021/03/21 11:37:09;;;;;;;15.75;3.00;;;9.30;70.80;;;;;;4989842;28;20054;-59
2021/03/21 11:39:38;;;;;;;18.90;3.57;;;9.30;71.10;;;;;;4979691;28;20435;-60
2021/03/21 11:42:18;;;;;;;15.88;3.45;;;9.40;70.80;;;;;;4982392;28;20030;-59
2021/03/21 11:44:44;;;;;;;16.48;4.40;;;9.30;68.90;;;;;;4985897;28;20053;-58
2021/03/21 11:47:14;;;;;;;16.55;3.60;;;9.40;70.80;;;;;;4985451;28;20038;-60
2021/03/21 11:49:42;;;;;;;14.55;2.75;;;9.40;70.90;;;;;;4988583;28;20132;-58
2021/03/21 11:52:08;;;;;;;16.20;4.03;;;9.40;69.50;;;;;;4992479;28;20077;-58
2021/03/21 11:54:36;;;;;;;24.27;3.70;;;9.50;70.10;;;;;;4988481;28;20476;-59
2021/03/21 11:57:26;;;;;;;20.55;4.00;;;9.60;70.40;;;;;;4990197;28;20034;-59
2021/03/21 11:59:54;;;;;;;17.52;3.47;;;9.90;69.30;;;;;;4984284;28;20045;-59
2021/03/21 12:02:29;;;;;;;18.85;3.25;;;9.90;68.40;;;;;;4994303;28;20040;-58
2021/03/21 12:04:58;;;;;;;15.93;3.30;;;10.10;68.70;;;;;;4997753;28;20743;-58
2021/03/21 12:07:27;;;;;;;22.60;4.65;;;10.30;68.10;;;;;;4990262;28;20050;-58
2021/03/21 12:09:53;;;;;;;23.65;4.13;;;10.40;67.10;;;;;;4997945;28;20034;-58
2021/03/21 12:12:36;;;;;;;17.20;4.15;;;10.60;66.70;;;;;;4998340;28;20040;-58
2021/03/21 12:15:13;;;;;;;17.52;3.55;;;10.70;65.70;;;;;;4988920;28;20117;-59
2021/03/21 12:17:39;;;;;;;19.52;3.30;;;10.80;65.60;;;;;;4991110;28;20405;-56
2021/03/21 12:20:36;;;;;;;16.27;3.78;;;11.00;66.30;;;;;;4992927;28;20037;-58
2021/03/21 12:23:03;;;;;;;;;;;11.10;63.50;;;;;;4993551;28;20081;-58
2021/03/21 12:25:35;;;;;;;17.58;3.55;;;11.20;63.80;;;;;;4988961;28;19991;-59
2021/03/21 12:28:12;;;;;;;20.25;2.90;;;11.40;64.00;;;;;;4990320;28;20030;-57
2021/03/21 12:31:12;;;;;;;19.52;3.85;;;11.50;62.00;;;;;;4987721;28;20446;-58
2021/03/21 12:33:39;;;;;;;15.18;3.33;;;11.50;63.50;;;;;;4989745;28;20038;-57
2021/03/21 12:36:08;;;;;;;14.02;2.92;;;11.70;65.20;;;;;;4986811;28;20041;-57
2021/03/21 12:38:47;;;;;;;18.45;3.30;;;11.90;61.60;;;;;;4991283;28;20049;-58
2021/03/21 12:41:24;;;;;;;14.73;3.15;;;11.80;60.80;;;;;;4993016;28;20038;-62
2021/03/21 12:44:09;;;;;;;14.85;3.55;;;11.80;61.40;;;;;;4994216;28;20050;-62
2021/03/21 12:46:44;;;;;;;14.32;2.92;;;11.80;60.10;;;;;;4994521;28;20049;-62
2021/03/21 12:49:30;;;;;;;19.48;3.00;;;11.80;61.40;;;;;;4985967;28;20064;-63
2021/03/21 12:51:59;;;;;;;12.00;3.20;;;11.90;61.00;;;;;;4981928;28;20034;-62
2021/03/21 12:54:27;;;;;;;20.92;3.58;;;11.70;59.30;;;;;;4990340;28;20045;-62
2021/03/21 12:56:53;;;;;;;17.25;3.42;;;11.60;62.40;;;;;;4983886;28;20076;-62
2021/03/21 12:59:19;;;;;;;13.93;3.20;;;11.50;62.10;;;;;;4989864;28;20149;-59
2021/03/21 13:01:46;;;;;;;17.20;3.33;;;11.50;62.80;;;;;;4991495;28;20029;-59
2021/03/21 13:04:12;;;;;;;16.85;3.28;;;11.50;62.10;;;;;;4991303;28;20170;-56
2021/03/21 13:06:39;;;;;;;13.77;2.90;;;11.60;63.30;;;;;;4993197;28;20088;-56
2021/03/21 13:09:05;;;;;;;12.00;3.03;;;11.70;61.50;;;;;;4989085;28;20379;-55
2021/03/21 13:11:31;;;;;;;9.15;2.50;;;11.80;62.40;;;;;;4993792;28;20033;-56
2021/03/21 13:13:57;;;;;;;15.98;3.45;;;11.90;61.70;;;;;;4996645;28;20041;-56
2021/03/21 13:16:23;;;;;;;17.02;3.85;;;11.90;61.20;;;;;;4996964;28;20033;-56
2021/03/21 13:18:49;;;;;;;13.38;2.97;;;12.00;61.00;;;;;;4992275;28;20036;-55
2021/03/21 13:21:14;;;;;;;9.88;2.80;;;12.10;59.30;;;;;;4992699;28;20072;-57
2021/03/21 13:23:40;;;;;;;15.25;3.00;;;12.00;58.90;;;;;;4995125;28;20061;-56
2021/03/21 13:26:06;;;;;;;13.38;2.97;;;12.00;60.10;;;;;;4988403;28;20893;-56
2021/03/21 13:28:31;;;;;;;8.93;1.65;;;11.90;59.60;;;;;;4979410;28;20566;-57
2021/03/21 13:30:59;;;;;;;11.27;2.45;;;11.80;60.00;;;;;;4991436;28;20040;-57
2021/03/21 13:33:27;;;;;;;14.73;2.50;;;11.80;59.90;;;;;;4992043;28;20042;-56
2021/03/21 13:35:55;;;;;;;12.20;2.33;;;11.90;60.70;;;;;;4986244;28;20048;-57
2021/03/21 13:38:23;;;;;;;11.30;2.30;;;11.90;60.80;;;;;;4987569;28;20050;-57
2021/03/21 13:40:49;;;;;;;10.98;2.08;;;11.90;59.90;;;;;;4987413;28;20038;-58